sensor_id;sensor_type;location;lat;lon;timestamp;pressure;altitude;pressure_sealevel;temperature;humidity
20119;BME280;10220;42.716;23.306;2022-11-20T00:02:24;94528.97;;;16.37;100.00
20119;BME280;10220;42.716;23.306;2022-11-20T00:04:49;94553.69;;;16.66;100.00
20119;BME280;10220;42.716;23.306;2022-11-20T00:07:15;94572.81;;;16.71;100.00
20119;BME280;10220;42.716;23.306;2022-11-20T00:09:40;94559.03;;;16.96;100.00
20119;BME280;10220;42.716;23.306;2022-11-20T00:12:06;94547.44;;;16.72;100.00
20119;BME280;10220;42.716;23.306;2022-11-20T00:14:31;94519.06;;;16.44;100.00
20119;BME280;10220;42.716;23.306;2022-11-20T00:16:57;94520.66;;;16.50;100.00
20119;BME280;10220;42.716;23.306;2022-11-20T00:19:22;94522.88;;;16.73;100.00
20119;BME280;10220;42.716;23.306;2022-11-20T00:21:47;94513.25;;;16.88;100.00
20119;BME280;10220;42.716;23.306;2022-11-20T00:24:16;94522.72;;;17.19;100.00
20119;BME280;10220;42.716;23.306;2022-11-20T00:26:41;94556.06;;;17.43;100.00
20119;BME280;10220;42.716;23.306;2022-11-20T00:29:08;94557.66;;;17.59;100.00
20119;BME280;10220;42.716;23.306;2022-11-20T00:31:35;94533.31;;;17.59;100.00
20119;BME280;10220;42.716;23.306;2022-11-20T00:34:00;94558.44;;;17.64;100.00
20119;BME280;10220;42.716;23.306;2022-11-20T00:36:27;94507.38;;;17.52;100.00
20119;BME280;10220;42.716;23.306;2022-11-20T00:38:54;94530.41;;;17.55;100.00
20119;BME280;10220;42.716;23.306;2022-11-20T00:41:20;94534.63;;;17.66;100.00
20119;BME280;10220;42.716;23.306;2022-11-20T00:43:46;94510.50;;;17.69;100.00
20119;BME280;10220;42.716;23.306;2022-11-20T00:46:16;94543.22;;;17.32;100.00
20119;BME280;10220;42.716;23.306;2022-11-20T00:48:42;94522.56;;;17.45;100.00
20119;BME280;10220;42.716;23.306;2022-11-20T00:51:13;94542.19;;;17.53;100.00
20119;BME280;10220;42.716;23.306;2022-11-20T00:53:39;94553.47;;;17.68;100.00
20119;BME280;10220;42.716;23.306;2022-11-20T00:56:07;94538.28;;;17.75;100.00
20119;BME280;10220;42.716;23.306;2022-11-20T00:58:34;94539.31;;;17.84;100.00
20119;BME280;10220;42.716;23.306;2022-11-20T01:01:01;94528.31;;;18.12;100.00
20119;BME280;10220;42.716;23.306;2022-11-20T01:03:27;94500.75;;;18.29;100.00
20119;BME280;10220;42.716;23.306;2022-11-20T01:05:53;94531.38;;;18.58;100.00
20119;BME280;10220;42.716;23.306;2022-11-20T01:08:18;94510.41;;;18.48;100.00
20119;BME280;10220;42.716;23.306;2022-11-20T01:10:44;94556.06;;;18.57;100.00
20119;BME280;10220;42.716;23.306;2022-11-20T01:13:09;94506.84;;;18.87;96.67
20119;BME280;10220;42.716;23.306;2022-11-20T01:15:53;94514.66;;;19.07;95.20
20119;BME280;10220;42.716;23.306;2022-11-20T01:18:18;94500.75;;;19.02;95.92
20119;BME280;10220;42.716;23.306;2022-11-20T01:20:43;94503.09;;;19.03;97.67
20119;BME280;10220;42.716;23.306;2022-11-20T01:23:09;94508.41;;;18.98;97.57
20119;BME280;10220;42.716;23.306;2022-11-20T01:25:34;94506.28;;;18.95;94.67
20119;BME280;10220;42.716;23.306;2022-11-20T01:28:00;94522.03;;;19.05;94.58
20119;BME280;10220;42.716;23.306;2022-11-20T01:30:25;94497.63;;;19.00;92.83
20119;BME280;10220;42.716;23.306;2022-11-20T01:32:50;94475.34;;;18.87;92.13
20119;BME280;10220;42.716;23.306;2022-11-20T01:35:16;94498.41;;;19.05;93.40
20119;BME280;10220;42.716;23.306;2022-11-20T01:37:41;94501.28;;;18.99;96.45
20119;BME280;10220;42.716;23.306;2022-11-20T01:40:07;94483.13;;;19.07;92.59
20119;BME280;10220;42.716;23.306;2022-11-20T01:42:33;94497.06;;;19.08;92.91
20119;BME280;10220;42.716;23.306;2022-11-20T01:48:20;94492.88;;;19.02;96.20
20119;BME280;10220;42.716;23.306;2022-11-20T01:50:48;94497.63;;;18.95;96.28
20119;BME280;10220;42.716;23.306;2022-11-20T01:53:18;94471.94;;;18.87;95.86
20119;BME280;10220;42.716;23.306;2022-11-20T01:55:52;94469.63;;;18.81;92.56
20119;BME280;10220;42.716;23.306;2022-11-20T01:58:21;94440.03;;;18.65;93.77
20119;BME280;10220;42.716;23.306;2022-11-20T02:00:48;94487.63;;;19.07;97.34
20119;BME280;10220;42.716;23.306;2022-11-20T02:03:17;94499.69;;;19.08;92.88
20119;BME280;10220;42.716;23.306;2022-11-20T02:06:11;94483.00;;;18.79;91.88
20119;BME280;10220;42.716;23.306;2022-11-20T02:08:39;94502.59;;;19.01;92.24
20119;BME280;10220;42.716;23.306;2022-11-20T02:11:05;94493.44;;;18.94;92.35
20119;BME280;10220;42.716;23.306;2022-11-20T02:13:30;94496.31;;;18.97;91.32
20119;BME280;10220;42.716;23.306;2022-11-20T02:16:24;94494.44;;;19.03;89.62
20119;BME280;10220;42.716;23.306;2022-11-20T02:18:51;94464.84;;;18.87;91.10
20119;BME280;10220;42.716;23.306;2022-11-20T02:24:19;94485.53;;;19.09;89.58
20119;BME280;10220;42.716;23.306;2022-11-20T02:26:59;94484.84;;;19.32;86.61
20119;BME280;10220;42.716;23.306;2022-11-20T02:29:39;94497.16;;;19.36;86.49
20119;BME280;10220;42.716;23.306;2022-11-20T02:32:18;94447.44;;;19.06;87.70
20119;BME280;10220;42.716;23.306;2022-11-20T02:34:44;94510.34;;;19.31;88.51
20119;BME280;10220;42.716;23.306;2022-11-20T02:37:09;94472.25;;;19.29;87.80
20119;BME280;10220;42.716;23.306;2022-11-20T02:39:35;94490.66;;;19.29;89.68
20119;BME280;10220;42.716;23.306;2022-11-20T02:42:01;94497.06;;;19.13;91.32
20119;BME280;10220;42.716;23.306;2022-11-20T02:44:27;94493.66;;;19.02;89.89
20119;BME280;10220;42.716;23.306;2022-11-20T02:46:52;94509.09;;;19.14;91.30
20119;BME280;10220;42.716;23.306;2022-11-20T02:49:18;94503.38;;;19.02;92.88
20119;BME280;10220;42.716;23.306;2022-11-20T02:51:43;94521.72;;;19.17;92.08
20119;BME280;10220;42.716;23.306;2022-11-20T02:54:09;94522.00;;;19.15;93.25
20119;BME280;10220;42.716;23.306;2022-11-20T02:56:34;94528.31;;;19.04;96.14
20119;BME280;10220;42.716;23.306;2022-11-20T02:59:02;94489.34;;;18.73;98.13
20119;BME280;10220;42.716;23.306;2022-11-20T03:01:27;94528.13;;;18.91;100.00
20119;BME280;10220;42.716;23.306;2022-11-20T03:03:53;94532.81;;;18.99;100.00
20119;BME280;10220;42.716;23.306;2022-11-20T03:06:19;94560.09;;;18.98;100.00
20119;BME280;10220;42.716;23.306;2022-11-20T03:08:45;94554.66;;;18.84;100.00
20119;BME280;10220;42.716;23.306;2022-11-20T03:11:10;94555.94;;;18.92;100.00
20119;BME280;10220;42.716;23.306;2022-11-20T03:13:36;94572.50;;;18.83;100.00
20119;BME280;10220;42.716;23.306;2022-11-20T03:16:12;94560.22;;;18.68;100.00
20119;BME280;10220;42.716;23.306;2022-11-20T03:18:39;94561.25;;;18.67;100.00
20119;BME280;10220;42.716;23.306;2022-11-20T03:21:05;94562.34;;;18.66;100.00
20119;BME280;10220;42.716;23.306;2022-11-20T03:23:32;94541.63;;;18.50;100.00
20119;BME280;10220;42.716;23.306;2022-11-20T03:26:21;94573.84;;;18.75;100.00
20119;BME280;10220;42.716;23.306;2022-11-20T03:28:52;94521.38;;;18.65;100.00
20119;BME280;10220;42.716;23.306;2022-11-20T03:31:22;94562.56;;;18.70;100.00
20119;BME280;10220;42.716;23.306;2022-11-20T03:33:48;94573.88;;;18.70;100.00
20119;BME280;10220;42.716;23.306;2022-11-20T03:36:15;94568.91;;;18.54;100.00
20119;BME280;10220;42.716;23.306;2022-11-20T03:38:40;94560.81;;;18.45;100.00
20119;BME280;10220;42.716;23.306;2022-11-20T03:41:26;94589.41;;;18.52;100.00
20119;BME280;10220;42.716;23.306;2022-11-20T03:43:54;94575.75;;;18.50;100.00
20119;BME280;10220;42.716;23.306;2022-11-20T03:46:20;94584.69;;;18.34;100.00
20119;BME280;10220;42.716;23.306;2022-11-20T03:48:46;94591.75;;;18.43;100.00
20119;BME280;10220;42.716;23.306;2022-11-20T03:51:17;94582.34;;;18.32;100.00
20119;BME280;10220;42.716;23.306;2022-11-20T03:53:43;94576.00;;;18.58;100.00
20119;BME280;10220;42.716;23.306;2022-11-20T03:56:11;94573.06;;;18.70;100.00
20119;BME280;10220;42.716;23.306;2022-11-20T03:58:38;94561.84;;;18.54;100.00
20119;BME280;10220;42.716;23.306;2022-11-20T04:01:18;94566.22;;;18.74;100.00
20119;BME280;10220;42.716;23.306;2022-11-20T04:03:45;94576.72;;;18.74;100.00
20119;BME280;10220;42.716;23.306;2022-11-20T04:06:13;94578.84;;;18.77;100.00
20119;BME280;10220;42.716;23.306;2022-11-20T04:08:39;94579.59;;;18.82;100.00
20119;BME280;10220;42.716;23.306;2022-11-20T04:11:14;94589.34;;;18.67;100.00
20119;BME280;10220;42.716;23.306;2022-11-20T04:13:41;94576.56;;;18.25;100.00
20119;BME280;10220;42.716;23.306;2022-11-20T04:16:08;94578.69;;;18.24;100.00
20119;BME280;10220;42.716;23.306;2022-11-20T04:18:34;94582.06;;;18.34;100.00
20119;BME280;10220;42.716;23.306;2022-11-20T04:21:00;94571.50;;;18.69;100.00
20119;BME280;10220;42.716;23.306;2022-11-20T04:23:26;94551.03;;;18.66;100.00
20119;BME280;10220;42.716;23.306;2022-11-20T04:25:52;94574.09;;;18.79;100.00
20119;BME280;10220;42.716;23.306;2022-11-20T04:28:17;94543.16;;;18.66;100.00
20119;BME280;10220;42.716;23.306;2022-11-20T04:30:43;94558.41;;;18.49;100.00
20119;BME280;10220;42.716;23.306;2022-11-20T04:33:08;94560.53;;;18.42;100.00
20119;BME280;10220;42.716;23.306;2022-11-20T04:35:35;94568.63;;;18.60;100.00
20119;BME280;10220;42.716;23.306;2022-11-20T04:38:00;94597.75;;;18.64;100.00
20119;BME280;10220;42.716;23.306;2022-11-20T04:40:27;94550.34;;;18.25;100.00
20119;BME280;10220;42.716;23.306;2022-11-20T04:42:52;94559.25;;;18.34;100.00
20119;BME280;10220;42.716;23.306;2022-11-20T04:45:18;94589.13;;;18.58;100.00
20119;BME280;10220;42.716;23.306;2022-11-20T04:47:43;94539.00;;;18.55;99.06
20119;BME280;10220;42.716;23.306;2022-11-20T04:50:09;94557.31;;;18.75;98.46
20119;BME280;10220;42.716;23.306;2022-11-20T04:52:34;94524.06;;;18.50;97.95
20119;BME280;10220;42.716;23.306;2022-11-20T04:54:59;94569.94;;;18.68;98.67
20119;BME280;10220;42.716;23.306;2022-11-20T04:57:25;94514.09;;;18.42;99.01
20119;BME280;10220;42.716;23.306;2022-11-20T04:59:50;94554.19;;;18.58;100.00
20119;BME280;10220;42.716;23.306;2022-11-20T05:02:16;94537.13;;;18.65;100.00
20119;BME280;10220;42.716;23.306;2022-11-20T05:04:41;94531.13;;;18.50;100.00
20119;BME280;10220;42.716;23.306;2022-11-20T05:07:06;94543.44;;;18.64;99.83
20119;BME280;10220;42.716;23.306;2022-11-20T05:09:32;94551.84;;;18.66;100.00
20119;BME280;10220;42.716;23.306;2022-11-20T05:11:57;94536.34;;;18.65;99.90
20119;BME280;10220;42.716;23.306;2022-11-20T05:14:23;94537.34;;;18.74;100.00
20119;BME280;10220;42.716;23.306;2022-11-20T05:16:48;94535.06;;;18.62;100.00
20119;BME280;10220;42.716;23.306;2022-11-20T05:19:13;94517.25;;;18.44;100.00
20119;BME280;10220;42.716;23.306;2022-11-20T05:21:39;94543.69;;;18.63;98.98
20119;BME280;10220;42.716;23.306;2022-11-20T05:24:04;94534.25;;;18.62;98.83
20119;BME280;10220;42.716;23.306;2022-11-20T05:26:31;94544.25;;;18.60;99.25
20119;BME280;10220;42.716;23.306;2022-11-20T05:28:56;94529.31;;;18.50;100.00
20119;BME280;10220;42.716;23.306;2022-11-20T05:31:24;94527.47;;;18.56;99.27
20119;BME280;10220;42.716;23.306;2022-11-20T05:33:50;94529.81;;;18.52;99.01
20119;BME280;10220;42.716;23.306;2022-11-20T05:36:16;94522.50;;;18.49;98.56
20119;BME280;10220;42.716;23.306;2022-11-20T05:38:43;94535.56;;;18.59;98.50
20119;BME280;10220;42.716;23.306;2022-11-20T05:41:10;94536.88;;;18.62;100.00
20119;BME280;10220;42.716;23.306;2022-11-20T05:43:37;94549.28;;;18.41;100.00
20119;BME280;10220;42.716;23.306;2022-11-20T05:46:03;94526.22;;;18.28;100.00
20119;BME280;10220;42.716;23.306;2022-11-20T05:48:29;94546.66;;;18.26;100.00
20119;BME280;10220;42.716;23.306;2022-11-20T05:50:57;94532.78;;;18.01;100.00
20119;BME280;10220;42.716;23.306;2022-11-20T05:53:23;94549.03;;;18.03;100.00
20119;BME280;10220;42.716;23.306;2022-11-20T05:55:59;94536.72;;;17.94;100.00
20119;BME280;10220;42.716;23.306;2022-11-20T05:58:25;94559.75;;;17.72;100.00
20119;BME280;10220;42.716;23.306;2022-11-20T06:00:50;94535.66;;;17.85;100.00
20119;BME280;10220;42.716;23.306;2022-11-20T06:03:15;94544.31;;;17.85;100.00
20119;BME280;10220;42.716;23.306;2022-11-20T06:05:41;94558.19;;;17.81;100.00
20119;BME280;10220;42.716;23.306;2022-11-20T06:08:06;94563.69;;;17.94;100.00
20119;BME280;10220;42.716;23.306;2022-11-20T06:10:32;94566.59;;;17.93;100.00
20119;BME280;10220;42.716;23.306;2022-11-20T06:12:57;94569.22;;;18.03;100.00
20119;BME280;10220;42.716;23.306;2022-11-20T06:15:23;94543.25;;;17.86;100.00
20119;BME280;10220;42.716;23.306;2022-11-20T06:17:53;94554.28;;;17.93;100.00
20119;BME280;10220;42.716;23.306;2022-11-20T06:20:19;94510.50;;;17.84;100.00
20119;BME280;10220;42.716;23.306;2022-11-20T06:22:44;94517.81;;;18.07;100.00
20119;BME280;10220;42.716;23.306;2022-11-20T06:25:10;94547.47;;;18.27;100.00
20119;BME280;10220;42.716;23.306;2022-11-20T06:27:35;94538.56;;;18.18;100.00
20119;BME280;10220;42.716;23.306;2022-11-20T06:30:00;94541.69;;;18.30;100.00
20119;BME280;10220;42.716;23.306;2022-11-20T06:32:26;94538.78;;;18.26;100.00
20119;BME280;10220;42.716;23.306;2022-11-20T06:34:51;94581.28;;;18.19;100.00
20119;BME280;10220;42.716;23.306;2022-11-20T06:37:17;94552.97;;;17.96;100.00
20119;BME280;10220;42.716;23.306;2022-11-20T06:39:42;94541.97;;;18.19;100.00
20119;BME280;10220;42.716;23.306;2022-11-20T06:42:07;94553.72;;;18.16;100.00
20119;BME280;10220;42.716;23.306;2022-11-20T06:44:33;94574.72;;;18.06;100.00
20119;BME280;10220;42.716;23.306;2022-11-20T06:46:58;94578.91;;;18.12;100.00
20119;BME280;10220;42.716;23.306;2022-11-20T06:49:23;94578.91;;;18.07;100.00
20119;BME280;10220;42.716;23.306;2022-11-20T06:51:50;94558.72;;;17.78;100.00
20119;BME280;10220;42.716;23.306;2022-11-20T06:54:15;94558.22;;;17.96;100.00
20119;BME280;10220;42.716;23.306;2022-11-20T06:56:41;94564.75;;;18.13;100.00
20119;BME280;10220;42.716;23.306;2022-11-20T06:59:07;94567.91;;;18.10;100.00
20119;BME280;10220;42.716;23.306;2022-11-20T07:01:32;94583.38;;;18.12;100.00
20119;BME280;10220;42.716;23.306;2022-11-20T07:03:58;94536.16;;;17.92;100.00
20119;BME280;10220;42.716;23.306;2022-11-20T07:06:23;94579.44;;;18.09;100.00
20119;BME280;10220;42.716;23.306;2022-11-20T07:08:50;94557.69;;;17.99;100.00
20119;BME280;10220;42.716;23.306;2022-11-20T07:11:17;94609.63;;;18.26;100.00
20119;BME280;10220;42.716;23.306;2022-11-20T07:13:42;94608.53;;;18.13;100.00
20119;BME280;10220;42.716;23.306;2022-11-20T07:16:08;94585.97;;;17.97;100.00
20119;BME280;10220;42.716;23.306;2022-11-20T07:18:34;94612.50;;;18.30;100.00
20119;BME280;10220;42.716;23.306;2022-11-20T07:21:01;94586.75;;;18.02;100.00
20119;BME280;10220;42.716;23.306;2022-11-20T07:23:27;94607.78;;;18.27;100.00
20119;BME280;10220;42.716;23.306;2022-11-20T07:25:53;94595.19;;;18.29;100.00
20119;BME280;10220;42.716;23.306;2022-11-20T07:28:18;94594.13;;;18.20;100.00
20119;BME280;10220;42.716;23.306;2022-11-20T07:30:49;94595.19;;;18.34;100.00
20119;BME280;10220;42.716;23.306;2022-11-20T07:33:15;94587.84;;;18.26;100.00
20119;BME280;10220;42.716;23.306;2022-11-20T07:35:40;94620.91;;;18.17;100.00
20119;BME280;10220;42.716;23.306;2022-11-20T07:38:06;94615.91;;;18.25;100.00
20119;BME280;10220;42.716;23.306;2022-11-20T07:40:31;94630.06;;;18.44;100.00
20119;BME280;10220;42.716;23.306;2022-11-20T07:42:56;94617.44;;;18.71;100.00
20119;BME280;10220;42.716;23.306;2022-11-20T07:45:23;94622.09;;;18.94;100.00
20119;BME280;10220;42.716;23.306;2022-11-20T07:47:49;94605.88;;;18.72;100.00
20119;BME280;10220;42.716;23.306;2022-11-20T07:50:15;94612.72;;;18.63;100.00
20119;BME280;10220;42.716;23.306;2022-11-20T07:52:40;94585.94;;;18.71;100.00
20119;BME280;10220;42.716;23.306;2022-11-20T07:55:06;94560.81;;;18.50;100.00
20119;BME280;10220;42.716;23.306;2022-11-20T07:57:32;94608.00;;;18.60;100.00
20119;BME280;10220;42.716;23.306;2022-11-20T07:59:58;94601.72;;;18.51;100.00
20119;BME280;10220;42.716;23.306;2022-11-20T08:02:23;94561.88;;;18.34;100.00
20119;BME280;10220;42.716;23.306;2022-11-20T08:04:48;94576.56;;;18.11;100.00
20119;BME280;10220;42.716;23.306;2022-11-20T08:07:14;94606.72;;;18.28;100.00
20119;BME280;10220;42.716;23.306;2022-11-20T08:09:39;94618.53;;;18.25;100.00
20119;BME280;10220;42.716;23.306;2022-11-20T08:12:05;94603.03;;;18.04;100.00
20119;BME280;10220;42.716;23.306;2022-11-20T08:14:49;94596.22;;;18.38;100.00
20119;BME280;10220;42.716;23.306;2022-11-20T08:17:14;94594.41;;;18.28;100.00
20119;BME280;10220;42.716;23.306;2022-11-20T08:19:40;94612.25;;;18.31;100.00
20119;BME280;10220;42.716;23.306;2022-11-20T08:22:08;94603.06;;;18.19;100.00
20119;BME280;10220;42.716;23.306;2022-11-20T08:24:33;94585.47;;;17.70;100.00
20119;BME280;10220;42.716;23.306;2022-11-20T08:27:00;94563.44;;;17.61;100.00
20119;BME280;10220;42.716;23.306;2022-11-20T08:29:26;94574.19;;;17.84;100.00
20119;BME280;10220;42.716;23.306;2022-11-20T08:31:51;94599.63;;;17.79;100.00
20119;BME280;10220;42.716;23.306;2022-11-20T08:34:17;94597.47;;;17.56;100.00
20119;BME280;10220;42.716;23.306;2022-11-20T08:36:42;94575.47;;;17.47;100.00
20119;BME280;10220;42.716;23.306;2022-11-20T08:39:11;94614.53;;;17.78;100.00
20119;BME280;10220;42.716;23.306;2022-11-20T08:41:37;94613.22;;;17.66;100.00
20119;BME280;10220;42.716;23.306;2022-11-20T08:44:03;94643.13;;;17.85;100.00
20119;BME280;10220;42.716;23.306;2022-11-20T08:46:37;94610.38;;;17.97;100.00
20119;BME280;10220;42.716;23.306;2022-11-20T08:49:05;94630.28;;;17.83;100.00
20119;BME280;10220;42.716;23.306;2022-11-20T08:51:31;94656.19;;;17.75;100.00
20119;BME280;10220;42.716;23.306;2022-11-20T08:53:57;94638.84;;;17.54;100.00
20119;BME280;10220;42.716;23.306;2022-11-20T08:56:23;94659.59;;;17.56;100.00
20119;BME280;10220;42.716;23.306;2022-11-20T08:58:50;94645.84;;;17.24;100.00
20119;BME280;10220;42.716;23.306;2022-11-20T09:01:16;94656.00;;;17.15;100.00
20119;BME280;10220;42.716;23.306;2022-11-20T09:03:42;94630.78;;;17.00;100.00
20119;BME280;10220;42.716;23.306;2022-11-20T09:06:07;94659.09;;;17.07;100.00
20119;BME280;10220;42.716;23.306;2022-11-20T09:08:34;94655.78;;;17.27;100.00
20119;BME280;10220;42.716;23.306;2022-11-20T09:11:01;94657.13;;;17.24;100.00
20119;BME280;10220;42.716;23.306;2022-11-20T09:13:27;94647.16;;;17.26;100.00
20119;BME280;10220;42.716;23.306;2022-11-20T09:15:58;94652.56;;;17.15;100.00
20119;BME280;10220;42.716;23.306;2022-11-20T09:18:24;94663.72;;;16.96;100.00
20119;BME280;10220;42.716;23.306;2022-11-20T09:20:50;94668.38;;;16.84;100.00
20119;BME280;10220;42.716;23.306;2022-11-20T09:23:16;94642.03;;;16.54;100.00
20119;BME280;10220;42.716;23.306;2022-11-20T09:25:43;94650.72;;;16.64;100.00
20119;BME280;10220;42.716;23.306;2022-11-20T09:28:08;94647.59;;;16.26;100.00
20119;BME280;10220;42.716;23.306;2022-11-20T09:30:34;94637.53;;;16.13;100.00
20119;BME280;10220;42.716;23.306;2022-11-20T09:33:00;94598.22;;;16.03;100.00
20119;BME280;10220;42.716;23.306;2022-11-20T09:35:26;94636.41;;;16.36;100.00
20119;BME280;10220;42.716;23.306;2022-11-20T09:37:52;94625.41;;;16.29;100.00
20119;BME280;10220;42.716;23.306;2022-11-20T09:40:28;94590.91;;;16.32;100.00
20119;BME280;10220;42.716;23.306;2022-11-20T09:56:20;94596.88;;;17.29;100.00
20119;BME280;10220;42.716;23.306;2022-11-20T09:58:49;94586.72;;;17.48;100.00
20119;BME280;10220;42.716;23.306;2022-11-20T10:01:17;94594.34;;;17.59;100.00
20119;BME280;10220;42.716;23.306;2022-11-20T10:04:04;94604.06;;;17.98;100.00
20119;BME280;10220;42.716;23.306;2022-11-20T10:06:41;94568.44;;;18.17;100.00
20119;BME280;10220;42.716;23.306;2022-11-20T10:14:49;94581.75;;;18.65;100.00
20119;BME280;10220;42.716;23.306;2022-11-20T10:25:15;94562.13;;;17.83;100.00
20119;BME280;10220;42.716;23.306;2022-11-20T10:28:11;94560.31;;;17.74;100.00
20119;BME280;10220;42.716;23.306;2022-11-20T10:30:43;94556.56;;;17.35;100.00
20119;BME280;10220;42.716;23.306;2022-11-20T10:33:19;94578.50;;;17.14;100.00
20119;BME280;10220;42.716;23.306;2022-11-20T10:35:59;94553.00;;;16.80;100.00
20119;BME280;10220;42.716;23.306;2022-11-20T10:38:39;94568.69;;;16.80;100.00
20119;BME280;10220;42.716;23.306;2022-11-20T10:41:06;94585.25;;;17.05;100.00
20119;BME280;10220;42.716;23.306;2022-11-20T10:46:44;94590.03;;;16.62;100.00
20119;BME280;10220;42.716;23.306;2022-11-20T10:49:18;94570.75;;;16.27;100.00
20119;BME280;10220;42.716;23.306;2022-11-20T10:51:48;94566.44;;;16.52;100.00
20119;BME280;10220;42.716;23.306;2022-11-20T10:54:27;94566.31;;;16.79;100.00
20119;BME280;10220;42.716;23.306;2022-11-20T10:57:05;94544.78;;;16.62;100.00
20119;BME280;10220;42.716;23.306;2022-11-20T11:00:05;94582.50;;;16.71;100.00
20119;BME280;10220;42.716;23.306;2022-11-20T11:02:52;94570.53;;;16.39;100.00
20119;BME280;10220;42.716;23.306;2022-11-20T11:07:56;94649.88;;;15.91;100.00
20119;BME280;10220;42.716;23.306;2022-11-20T11:10:28;94656.50;;;15.25;100.00
20119;BME280;10220;42.716;23.306;2022-11-20T11:12:56;94650.91;;;14.41;100.00
20119;BME280;10220;42.716;23.306;2022-11-20T11:15:39;94645.59;;;14.04;100.00
20119;BME280;10220;42.716;23.306;2022-11-20T11:18:08;94620.72;;;13.80;100.00
20119;BME280;10220;42.716;23.306;2022-11-20T11:20:34;94594.31;;;13.71;100.00
20119;BME280;10220;42.716;23.306;2022-11-20T11:23:00;94622.69;;;13.89;100.00
20119;BME280;10220;42.716;23.306;2022-11-20T11:25:31;94563.28;;;13.53;100.00
20119;BME280;10220;42.716;23.306;2022-11-20T11:28:18;94594.31;;;13.71;100.00
20119;BME280;10220;42.716;23.306;2022-11-20T11:30:45;94578.31;;;13.79;100.00
20119;BME280;10220;42.716;23.306;2022-11-20T11:33:24;94557.84;;;13.55;100.00
20119;BME280;10220;42.716;23.306;2022-11-20T11:36:01;94598.09;;;13.64;100.00
20119;BME280;10220;42.716;23.306;2022-11-20T11:38:36;94592.41;;;13.67;100.00
20119;BME280;10220;42.716;23.306;2022-11-20T11:41:03;94591.94;;;13.70;100.00
20119;BME280;10220;42.716;23.306;2022-11-20T11:43:32;94603.13;;;13.70;100.00
20119;BME280;10220;42.716;23.306;2022-11-20T11:48:58;94606.22;;;13.84;100.00
20119;BME280;10220;42.716;23.306;2022-11-20T11:54:57;94592.41;;;13.83;100.00
20119;BME280;10220;42.716;23.306;2022-11-20T12:00:29;94597.94;;;14.03;100.00
20119;BME280;10220;42.716;23.306;2022-11-20T12:05:36;94512.88;;;13.27;100.00
20119;BME280;10220;42.716;23.306;2022-11-20T12:10:59;94607.34;;;14.20;100.00
20119;BME280;10220;42.716;23.306;2022-11-20T12:13:42;94576.72;;;14.11;100.00
20119;BME280;10220;42.716;23.306;2022-11-20T12:16:13;94603.13;;;14.36;100.00
20119;BME280;10220;42.716;23.306;2022-11-20T12:18:40;94621.78;;;14.44;100.00
20119;BME280;10220;42.716;23.306;2022-11-20T12:24:06;94596.56;;;14.50;100.00
20119;BME280;10220;42.716;23.306;2022-11-20T12:27:20;94590.88;;;14.53;100.00
20119;BME280;10220;42.716;23.306;2022-11-20T12:30:02;94602.88;;;14.54;100.00
20119;BME280;10220;42.716;23.306;2022-11-20T12:35:38;94609.75;;;14.43;100.00
20119;BME280;10220;42.716;23.306;2022-11-20T12:43:30;94557.72;;;14.48;100.00
20119;BME280;10220;42.716;23.306;2022-11-20T12:46:25;94562.44;;;14.51;100.00
20119;BME280;10220;42.716;23.306;2022-11-20T13:01:12;94572.44;;;14.21;100.00
20119;BME280;10220;42.716;23.306;2022-11-20T13:06:54;94544.59;;;14.22;100.00
20119;BME280;10220;42.716;23.306;2022-11-20T13:09:22;94544.59;;;14.22;100.00
20119;BME280;10220;42.716;23.306;2022-11-20T13:12:24;94526.34;;;14.22;100.00
20119;BME280;10220;42.716;23.306;2022-11-20T13:15:17;94546.16;;;14.23;100.00
20119;BME280;10220;42.716;23.306;2022-11-20T13:17:58;94572.69;;;14.20;100.00
20119;BME280;10220;42.716;23.306;2022-11-20T13:20:24;94565.81;;;14.14;100.00
20119;BME280;10220;42.716;23.306;2022-11-20T13:22:55;94586.28;;;14.22;100.00
20119;BME280;10220;42.716;23.306;2022-11-20T13:25:36;94593.94;;;14.28;100.00
20119;BME280;10220;42.716;23.306;2022-11-20T13:28:28;94567.31;;;14.26;100.00
20119;BME280;10220;42.716;23.306;2022-11-20T13:30:55;94556.38;;;14.08;100.00
20119;BME280;10220;42.716;23.306;2022-11-20T13:33:35;94553.75;;;13.92;100.00
20119;BME280;10220;42.716;23.306;2022-11-20T13:36:19;94546.50;;;14.10;100.00
20119;BME280;10220;42.716;23.306;2022-11-20T13:38:52;94553.50;;;13.93;100.00
20119;BME280;10220;42.716;23.306;2022-11-20T13:41:35;94551.38;;;14.07;100.00
20119;BME280;10220;42.716;23.306;2022-11-20T13:46:52;94533.47;;;14.10;100.00
20119;BME280;10220;42.716;23.306;2022-11-20T13:49:59;94544.53;;;14.38;100.00
20119;BME280;10220;42.716;23.306;2022-11-20T13:57:56;94541.69;;;14.40;100.00
20119;BME280;10220;42.716;23.306;2022-11-20T14:00:25;94569.25;;;14.36;100.00
20119;BME280;10220;42.716;23.306;2022-11-20T14:05:37;94548.28;;;14.26;100.00
20119;BME280;10220;42.716;23.306;2022-11-20T14:08:06;94585.38;;;14.49;100.00
20119;BME280;10220;42.716;23.306;2022-11-20T14:10:37;94555.28;;;14.42;100.00
20119;BME280;10220;42.716;23.306;2022-11-20T14:13:20;94599.25;;;14.38;100.00
20119;BME280;10220;42.716;23.306;2022-11-20T14:15:46;94576.63;;;14.39;100.00
20119;BME280;10220;42.716;23.306;2022-11-20T14:18:14;94579.84;;;14.46;100.00
20119;BME280;10220;42.716;23.306;2022-11-20T14:20:40;94572.25;;;14.44;100.00
20119;BME280;10220;42.716;23.306;2022-11-20T14:23:09;94561.59;;;14.46;100.00
20119;BME280;10220;42.716;23.306;2022-11-20T14:25:36;94572.91;;;14.35;100.00